Time;durP1;ratioP1;P1;durP2;ratioP2;P2;SDS_P1;SDS_P2;PMS_P1;PMS_P2;Temp;Humidity;BMP_temperature;BMP_pressure;BME280_temperature;BME280_humidity;BME280_pressure;Samples;Min_cycle;Max_cycle;Signal;HPM_P1;HPM_P2
2022/04/12 00:00:15;;;;;;;2.63;2.42;;;;;;;;;;5072909;28;20204;-91
2022/04/12 00:02:42;;;;;;;2.90;2.70;;;;;;;;;;5072728;28;20255;-89
2022/04/12 00:05:11;;;;;;;4.05;3.08;;;;;;;;;;5073371;28;20193;-89
2022/04/12 00:07:40;;;;;;;2.72;2.53;;;;;;;;;;5073957;28;20182;-89
2022/04/12 00:10:09;;;;;;;2.83;2.63;;;;;;;;;;5073817;28;20204;-89
2022/04/12 00:12:37;;;;;;;2.80;2.30;;;;;;;;;;5075915;28;20197;-89
2022/04/12 00:15:06;;;;;;;3.70;3.15;;;;;;;;;;5076732;28;20258;-89
2022/04/12 00:20:19;;;;;;;2.85;2.65;;;;;;;;;;5076060;28;20212;-89
2022/04/12 00:22:48;;;;;;;3.53;2.33;;;;;;;;;;5076175;28;20201;-89
2022/04/12 00:25:15;;;;;;;3.33;2.80;;;;;;;;;;5076267;28;20643;-89
2022/04/12 00:27:43;;;;;;;3.92;2.20;;;;;;;;;;5076024;28;20207;-89
2022/04/12 00:30:12;;;;;;;2.58;2.25;;;;;;;;;;5075890;28;20193;-87
2022/04/12 00:32:40;;;;;;;2.92;2.50;;;;;;;;;;5074948;28;20247;-88
2022/04/12 00:35:08;;;;;;;3.15;2.92;;;;;;;;;;5077305;28;20221;-89
2022/04/12 00:37:36;;;;;;;3.03;2.55;;;;;;;;;;5076564;28;20225;-89
2022/04/12 00:40:06;;;;;;;2.50;2.30;;;;;;;;;;5076538;28;20201;-89
2022/04/12 00:42:34;;;;;;;4.07;2.70;;;;;;;;;;5076178;28;20216;-89
2022/04/12 00:45:01;;;;;;;3.47;3.10;;;;;;;;;;5076341;28;20197;-89
2022/04/12 00:47:29;;;;;;;2.67;2.47;;;;;;;;;;5075875;28;20676;-89
2022/04/12 00:49:56;;;;;;;3.35;3.05;;;;;;;;;;5076143;28;20197;-90
2022/04/12 00:52:23;;;;;;;3.10;2.80;;;;;;;;;;5076675;28;20208;-89
2022/04/12 00:54:53;;;;;;;2.72;2.53;;;;;;;;;;5075705;28;20208;-89
2022/04/12 00:57:21;;;;;;;2.45;2.25;;;;;;;;;;5075862;28;20625;-89
2022/04/12 00:59:51;;;;;;;2.83;2.45;;;;;;;;;;5076309;28;20201;-89
2022/04/12 01:02:18;;;;;;;4.57;4.15;;;;;;;;;;5076090;28;20205;-89
2022/04/12 01:04:45;;;;;;;3.50;2.53;;;;;;;;;;5076049;28;20201;-89
2022/04/12 01:07:13;;;;;;;3.08;2.58;;;;;;;;;;5075862;28;20233;-89
2022/04/12 01:09:40;;;;;;;3.63;2.78;;;;;;;;;;5076374;28;20570;-89
2022/04/12 01:12:10;;;;;;;3.60;2.90;;;;;;;;;;5076386;28;20263;-89
2022/04/12 01:14:39;;;;;;;3.63;3.33;;;;;;;;;;5076608;28;20197;-89
2022/04/12 01:17:08;;;;;;;3.55;3.25;;;;;;;;;;5075506;28;20225;-89
2022/04/12 01:19:35;;;;;;;2.83;2.63;;;;;;;;;;5075659;28;20209;-88
2022/04/12 01:22:06;;;;;;;3.40;3.05;;;;;;;;;;5075283;28;20239;-89
2022/04/12 01:24:35;;;;;;;2.65;2.45;;;;;;;;;;5076035;28;20197;-89
2022/04/12 01:27:03;;;;;;;3.20;2.70;;;;;;;;;;5075609;28;20300;-88
2022/04/12 01:29:35;;;;;;;3.40;3.10;;;;;;;;;;5075852;28;20201;-88
2022/04/12 01:32:07;;;;;;;3.78;3.08;;;;;;;;;;5075221;28;20204;-89
2022/04/12 01:34:35;;;;;;;2.60;2.40;;;;;;;;;;5075218;28;20251;-89
2022/04/12 01:37:02;;;;;;;3.42;3.13;;;;;;;;;;5074804;28;20225;-88
2022/04/12 01:39:30;;;;;;;2.83;2.63;;;;;;;;;;5075147;28;20259;-88
2022/04/12 01:41:58;;;;;;;3.50;3.20;;;;;;;;;;5074999;28;20197;-88
2022/04/12 01:44:26;;;;;;;3.47;3.08;;;;;;;;;;5075704;28;20232;-89
2022/04/12 01:46:53;;;;;;;3.20;2.45;;;;;;;;;;5076503;28;20600;-89
2022/04/12 01:49:20;;;;;;;2.75;2.50;;;;;;;;;;5075658;28;20205;-88
2022/04/12 01:51:48;;;;;;;2.60;2.40;;;;;;;;;;5074356;28;20227;-89
2022/04/12 01:54:16;;;;;;;3.47;2.40;;;;;;;;;;5074464;28;20240;-89
2022/04/12 01:56:43;;;;;;;3.10;2.65;;;;;;;;;;5074445;28;20248;-89
2022/04/12 01:59:12;;;;;;;2.58;2.38;;;;;;;;;;5074092;28;20201;-89
2022/04/12 02:01:39;;;;;;;2.40;2.17;;;;;;;;;;5074709;28;20204;-90
2022/04/12 02:04:06;;;;;;;2.70;2.50;;;;;;;;;;5074899;28;20201;-89
2022/04/12 02:06:34;;;;;;;2.65;2.45;;;;;;;;;;5073806;28;20690;-89
2022/04/12 02:09:02;;;;;;;2.60;2.40;;;;;;;;;;5075487;28;20197;-89
2022/04/12 02:11:29;;;;;;;3.30;2.70;;;;;;;;;;5075765;28;20207;-89
2022/04/12 02:13:56;;;;;;;3.28;2.97;;;;;;;;;;5074739;28;20213;-90
2022/04/12 02:16:25;;;;;;;2.03;1.92;;;;;;;;;;5075299;28;20266;-90
2022/04/12 02:18:52;;;;;;;2.97;2.72;;;;;;;;;;5074874;28;20197;-88
2022/04/12 02:21:19;;;;;;;2.95;2.70;;;;;;;;;;5073308;28;20216;-88
2022/04/12 02:23:47;;;;;;;3.13;2.83;;;;;;;;;;5073272;28;20204;-88
2022/04/12 02:26:14;;;;;;;2.30;2.10;;;;;;;;;;5073770;28;20217;-88
2022/04/12 02:28:41;;;;;;;2.58;2.38;;;;;;;;;;5074308;28;20197;-86
2022/04/12 02:31:08;;;;;;;2.42;2.22;;;;;;;;;;5073035;28;20424;-86
2022/04/12 02:33:37;;;;;;;2.50;2.30;;;;;;;;;;5072501;28;20204;-87
2022/04/12 02:36:05;;;;;;;2.80;2.22;;;;;;;;;;5073312;28;20220;-87
2022/04/12 02:38:33;;;;;;;3.33;3.03;;;;;;;;;;5073093;28;20223;-86
2022/04/12 02:41:00;;;;;;;2.72;2.53;;;;;;;;;;5073013;28;20201;-86
2022/04/12 02:43:28;;;;;;;3.00;2.78;;;;;;;;;;5072789;28;20201;-86
2022/04/12 02:45:55;;;;;;;2.60;2.40;;;;;;;;;;5073373;28;20228;-84
2022/04/12 02:48:22;;;;;;;2.97;2.70;;;;;;;;;;5073795;28;20194;-84
2022/04/12 02:50:51;;;;;;;2.30;2.10;;;;;;;;;;5073619;28;20205;-84
2022/04/12 02:53:18;;;;;;;2.00;1.90;;;;;;;;;;5073515;28;20204;-84
2022/04/12 02:55:45;;;;;;;2.90;2.70;;;;;;;;;;5073129;28;20227;-83
2022/04/12 02:58:13;;;;;;;2.40;2.20;;;;;;;;;;5074606;28;20278;-85
2022/04/12 03:00:40;;;;;;;2.65;2.45;;;;;;;;;;5073786;28;20200;-85
2022/04/12 03:03:07;;;;;;;2.85;2.35;;;;;;;;;;5073155;28;20224;-85
2022/04/12 03:05:35;;;;;;;2.13;2.03;;;;;;;;;;5061464;28;20307;-87
2022/04/12 03:08:04;;;;;;;1.90;1.80;;;;;;;;;;5053120;28;20556;-87
2022/04/12 03:10:32;;;;;;;2.25;2.08;;;;;;;;;;5052493;28;20804;-85
2022/04/12 03:12:59;;;;;;;2.08;1.90;;;;;;;;;;5054531;28;20201;-84
2022/04/12 03:15:26;;;;;;;1.60;1.50;;;;;;;;;;5054921;28;20221;-84
2022/04/12 03:17:54;;;;;;;1.90;1.80;;;;;;;;;;5053985;28;20232;-84
2022/04/12 03:20:21;;;;;;;3.83;2.10;;;;;;;;;;5057281;28;20206;-84
2022/04/12 03:22:48;;;;;;;2.78;2.58;;;;;;;;;;5060774;28;20201;-84
2022/04/12 03:25:17;;;;;;;5.25;3.63;;;;;;;;;;5054288;28;20721;-84
2022/04/12 03:27:44;;;;;;;2.88;2.58;;;;;;;;;;5054737;28;20661;-85
2022/04/12 03:30:13;;;;;;;2.50;2.30;;;;;;;;;;5053956;28;20284;-84
2022/04/12 03:32:40;;;;;;;2.53;2.33;;;;;;;;;;5054083;28;20198;-83
2022/04/12 03:35:08;;;;;;;3.72;2.45;;;;;;;;;;5053962;28;20198;-85
2022/04/12 03:37:35;;;;;;;2.45;2.25;;;;;;;;;;5055284;28;20229;-84
2022/04/12 03:40:03;;;;;;;2.90;2.67;;;;;;;;;;5055388;28;20197;-84
2022/04/12 03:42:32;;;;;;;3.42;3.13;;;;;;;;;;5055853;28;20190;-84
2022/04/12 03:44:59;;;;;;;2.53;2.33;;;;;;;;;;5057100;28;20205;-84
2022/04/12 03:47:26;;;;;;;2.78;2.47;;;;;;;;;;5060046;28;20198;-83
2022/04/12 03:49:54;;;;;;;3.00;2.70;;;;;;;;;;5068603;28;20215;-84
2022/04/12 03:52:21;;;;;;;2.92;2.50;;;;;;;;;;5079734;28;20205;-84
2022/04/12 03:54:48;;;;;;;3.17;2.88;;;;;;;;;;5079210;28;20212;-85
2022/04/12 03:57:17;;;;;;;2.67;2.47;;;;;;;;;;5077084;28;20209;-85
2022/04/12 03:59:45;;;;;;;2.50;2.30;;;;;;;;;;5076057;28;20201;-86
2022/04/12 04:02:13;;;;;;;3.25;2.72;;;;;;;;;;5075472;28;20201;-85
2022/04/12 04:04:40;;;;;;;2.60;2.40;;;;;;;;;;5076483;28;20197;-85
2022/04/12 04:07:07;;;;;;;2.95;2.75;;;;;;;;;;5076324;28;20228;-88
2022/04/12 04:09:34;;;;;;;2.90;2.67;;;;;;;;;;5076462;28;20197;-86
2022/04/12 04:12:03;;;;;;;3.10;2.72;;;;;;;;;;5075821;28;20200;-88
2022/04/12 04:14:33;;;;;;;3.25;2.95;;;;;;;;;;5075510;28;20288;-86
2022/04/12 04:17:02;;;;;;;3.17;2.78;;;;;;;;;;5075542;28;20316;-87
2022/04/12 04:19:29;;;;;;;3.20;2.90;;;;;;;;;;5075321;28;20270;-88
2022/04/12 04:21:56;;;;;;;2.78;2.50;;;;;;;;;;5077230;28;20610;-84
2022/04/12 04:24:25;;;;;;;3.15;2.85;;;;;;;;;;5081096;28;20198;-84
2022/04/12 04:26:55;;;;;;;2.58;2.38;;;;;;;;;;5079519;28;20217;-86
2022/04/12 04:29:23;;;;;;;2.47;2.28;;;;;;;;;;5078057;28;20700;-85
2022/04/12 04:31:51;;;;;;;2.17;1.98;;;;;;;;;;5076588;28;20204;-86
2022/04/12 04:34:20;;;;;;;2.28;1.98;;;;;;;;;;5077957;28;20201;-84
2022/04/12 04:36:47;;;;;;;3.50;2.10;;;;;;;;;;5079765;28;20216;-85
2022/04/12 04:39:15;;;;;;;2.40;2.20;;;;;;;;;;5076856;28;20224;-85
2022/04/12 04:41:42;;;;;;;2.40;2.13;;;;;;;;;;5079654;28;20208;-84
2022/04/12 04:44:09;;;;;;;3.33;2.55;;;;;;;;;;5078974;28;20250;-85
2022/04/12 04:46:36;;;;;;;3.03;2.83;;;;;;;;;;5078871;28;20224;-85
2022/04/12 04:49:04;;;;;;;3.00;2.80;;;;;;;;;;5078516;28;20614;-84
2022/04/12 04:51:34;;;;;;;3.28;2.97;;;;;;;;;;5078717;28;20208;-85
2022/04/12 04:54:02;;;;;;;3.88;3.47;;;;;;;;;;5079399;28;20185;-84
2022/04/12 04:56:29;;;;;;;3.72;3.42;;;;;;;;;;5079636;28;20697;-85
2022/04/12 04:58:58;;;;;;;3.90;3.50;;;;;;;;;;5078557;28;20591;-85
2022/04/12 05:01:25;;;;;;;4.25;2.95;;;;;;;;;;5079226;28;20205;-85
2022/04/12 05:03:53;;;;;;;2.90;2.70;;;;;;;;;;5079165;28;20204;-85
2022/04/12 05:06:20;;;;;;;2.60;2.40;;;;;;;;;;5079183;28;20235;-85
2022/04/12 05:08:49;;;;;;;3.70;3.00;;;;;;;;;;5079446;28;20559;-85
2022/04/12 05:11:16;;;;;;;3.00;2.78;;;;;;;;;;5079256;28;20204;-85
2022/04/12 05:13:44;;;;;;;3.30;3.00;;;;;;;;;;5079788;28;20201;-85
2022/04/12 05:16:11;;;;;;;3.90;2.97;;;;;;;;;;5078816;28;20229;-85
2022/04/12 05:18:38;;;;;;;3.17;2.90;;;;;;;;;;5080197;28;20229;-85
2022/04/12 05:21:06;;;;;;;2.80;2.60;;;;;;;;;;5079948;28;20205;-85
2022/04/12 05:23:33;;;;;;;2.60;2.40;;;;;;;;;;5078491;28;20811;-84
2022/04/12 05:26:02;;;;;;;2.97;2.67;;;;;;;;;;5079841;28;20225;-85
2022/04/12 05:28:30;;;;;;;2.85;2.65;;;;;;;;;;5079543;28;20208;-84
2022/04/12 05:30:57;;;;;;;3.72;3.05;;;;;;;;;;5077493;28;20201;-85
2022/04/12 05:33:25;;;;;;;4.38;4.07;;;;;;;;;;5079271;28;20208;-85
2022/04/12 05:35:52;;;;;;;4.13;3.72;;;;;;;;;;5079599;28;20282;-84
2022/04/12 05:38:19;;;;;;;4.13;3.72;;;;;;;;;;5070505;28;20661;-84
2022/04/12 05:40:47;;;;;;;3.67;3.38;;;;;;;;;;5074830;28;20205;-84
2022/04/12 05:43:15;;;;;;;3.50;3.20;;;;;;;;;;5078111;28;20208;-84
2022/04/12 05:45:43;;;;;;;5.13;3.55;;;;;;;;;;5078793;28;20229;-85
2022/04/12 05:48:10;;;;;;;4.00;3.70;;;;;;;;;;5079499;28;20303;-84
2022/04/12 05:50:37;;;;;;;3.67;3.38;;;;;;;;;;5074323;28;20586;-86
2022/04/12 05:53:05;;;;;;;3.88;3.58;;;;;;;;;;5077598;28;20207;-84
2022/04/12 05:55:34;;;;;;;4.65;4.20;;;;;;;;;;5078793;28;20716;-85
2022/04/12 05:58:03;;;;;;;4.50;4.13;;;;;;;;;;5079377;28;20207;-85
2022/04/12 06:00:34;;;;;;;5.50;4.28;;;;;;;;;;5079235;28;20232;-84
2022/04/12 06:03:03;;;;;;;4.68;4.28;;;;;;;;;;5078873;28;20193;-85
2022/04/12 06:05:32;;;;;;;4.07;3.72;;;;;;;;;;5078544;28;20272;-86
2022/04/12 06:08:00;;;;;;;4.45;4.05;;;;;;;;;;5079248;28;20207;-85
2022/04/12 06:10:28;;;;;;;3.90;3.50;;;;;;;;;;5078579;28;20201;-85
2022/04/12 06:12:55;;;;;;;4.43;3.50;;;;;;;;;;5077750;28;20204;-84
2022/04/12 06:15:22;;;;;;;3.25;2.92;;;;;;;;;;5078516;28;20723;-84
2022/04/12 06:17:51;;;;;;;3.53;3.03;;;;;;;;;;5077330;28;20359;-84
2022/04/12 06:20:20;;;;;;;4.32;3.28;;;;;;;;;;5077968;28;20235;-85
2022/04/12 06:22:47;;;;;;;3.13;2.92;;;;;;;;;;5078863;28;20244;-84
2022/04/12 06:25:19;;;;;;;4.28;3.88;;;;;;;;;;5078174;28;20213;-85
2022/04/12 06:27:50;;;;;;;3.90;3.30;;;;;;;;;;5079042;28;20215;-85
2022/04/12 06:30:19;;;;;;;5.20;3.95;;;;;;;;;;5078588;28;20204;-84
2022/04/12 06:32:49;;;;;;;5.13;4.07;;;;;;;;;;5077980;28;20228;-85
2022/04/12 06:35:17;;;;;;;4.22;3.67;;;;;;;;;;5077759;28;20194;-84
2022/04/12 06:37:46;;;;;;;5.68;4.32;;;;;;;;;;5078365;28;20208;-85
2022/04/12 06:40:19;;;;;;;4.85;4.45;;;;;;;;;;5077822;28;20615;-84
2022/04/12 06:42:47;;;;;;;5.60;4.35;;;;;;;;;;5078090;28;20235;-85
2022/04/12 06:45:14;;;;;;;5.30;4.80;;;;;;;;;;5077981;28;20213;-84
2022/04/12 06:47:42;;;;;;;4.75;4.05;;;;;;;;;;5077584;28;20213;-85
2022/04/12 06:50:12;;;;;;;5.38;4.88;;;;;;;;;;5076703;28;20250;-85
2022/04/12 06:52:40;;;;;;;4.90;4.40;;;;;;;;;;5077542;28;20201;-85
2022/04/12 06:55:08;;;;;;;6.32;4.78;;;;;;;;;;5078777;28;20224;-86
2022/04/12 06:57:37;;;;;;;6.20;5.03;;;;;;;;;;5079971;28;20664;-85
2022/04/12 07:00:07;;;;;;;4.97;4.28;;;;;;;;;;5079162;28;20224;-85
2022/04/12 07:02:35;;;;;;;6.75;4.93;;;;;;;;;;5077980;28;20204;-86
2022/04/12 07:05:03;;;;;;;6.25;4.65;;;;;;;;;;5078611;28;20230;-85
2022/04/12 07:07:31;;;;;;;5.55;5.05;;;;;;;;;;5078766;28;20696;-85
2022/04/12 07:09:59;;;;;;;5.55;4.68;;;;;;;;;;5078018;28;20212;-85
2022/04/12 07:12:26;;;;;;;4.38;4.07;;;;;;;;;;5077853;28;20211;-85
2022/04/12 07:14:54;;;;;;;6.38;4.97;;;;;;;;;;5077479;28;20650;-85
2022/04/12 07:17:21;;;;;;;6.95;5.45;;;;;;;;;;5078859;28;20768;-85
2022/04/12 07:19:49;;;;;;;7.30;4.53;;;;;;;;;;5077989;28;20588;-85
2022/04/12 07:22:16;;;;;;;4.55;4.20;;;;;;;;;;5082981;28;20216;-85
2022/04/12 07:24:45;;;;;;;5.68;5.13;;;;;;;;;;5083077;28;20650;-87
2022/04/12 07:27:12;;;;;;;5.82;4.72;;;;;;;;;;5081621;28;20216;-85
2022/04/12 07:29:40;;;;;;;4.90;4.40;;;;;;;;;;5081054;28;20205;-85
2022/04/12 07:32:07;;;;;;;3.58;3.28;;;;;;;;;;5078169;28;20193;-85
2022/04/12 07:34:36;;;;;;;3.13;2.83;;;;;;;;;;5078167;28;20208;-86
2022/04/12 07:37:03;;;;;;;3.75;3.15;;;;;;;;;;5076950;28;20221;-86
2022/04/12 07:39:31;;;;;;;6.25;4.25;;;;;;;;;;5077567;28;20204;-86
2022/04/12 07:41:59;;;;;;;3.72;3.30;;;;;;;;;;5076735;28;20211;-86
2022/04/12 07:44:26;;;;;;;4.00;3.28;;;;;;;;;;5077285;28;20201;-86
2022/04/12 07:46:54;;;;;;;3.55;3.25;;;;;;;;;;5078265;28;20704;-87
2022/04/12 07:49:21;;;;;;;3.67;3.30;;;;;;;;;;5077336;28;20209;-86
2022/04/12 07:51:48;;;;;;;3.90;3.30;;;;;;;;;;5075602;28;20197;-86
2022/04/12 07:54:16;;;;;;;3.90;3.50;;;;;;;;;;5076631;28;20204;-86
2022/04/12 07:56:43;;;;;;;3.00;2.70;;;;;;;;;;5075989;28;20243;-86
2022/04/12 07:59:11;;;;;;;5.43;3.97;;;;;;;;;;5076868;28;20263;-86
2022/04/12 08:01:39;;;;;;;3.83;3.42;;;;;;;;;;5076502;28;20600;-85
2022/04/12 08:04:06;;;;;;;5.75;4.38;;;;;;;;;;5077747;28;20211;-85
2022/04/12 08:06:34;;;;;;;3.97;3.67;;;;;;;;;;5076987;28;20245;-85
2022/04/12 08:09:01;;;;;;;4.82;4.07;;;;;;;;;;5076903;28;20209;-86
2022/04/12 08:11:30;;;;;;;3.60;3.30;;;;;;;;;;5076523;28;20666;-86
2022/04/12 08:13:57;;;;;;;4.63;3.95;;;;;;;;;;5076176;28;20208;-86
2022/04/12 08:16:26;;;;;;;5.15;3.60;;;;;;;;;;5077259;28;20597;-86
2022/04/12 08:18:54;;;;;;;5.15;4.25;;;;;;;;;;5076955;28;20228;-86
2022/04/12 08:21:35;;;;;;;6.28;3.55;;;;;;;;;;5075821;28;20228;-86
2022/04/12 08:24:03;;;;;;;4.22;3.63;;;;;;;;;;5076682;28;20576;-86
2022/04/12 08:26:30;;;;;;;4.03;3.55;;;;;;;;;;5075797;28;20213;-86
2022/04/12 08:28:58;;;;;;;3.63;3.30;;;;;;;;;;5075622;28;20197;-87
2022/04/12 08:31:26;;;;;;;3.55;3.25;;;;;;;;;;5074332;28;20197;-87
2022/04/12 08:33:54;;;;;;;4.00;3.45;;;;;;;;;;5075658;28;20205;-86
2022/04/12 08:36:22;;;;;;;4.40;3.75;;;;;;;;;;5075152;28;20227;-86
2022/04/12 08:38:51;;;;;;;4.97;3.70;;;;;;;;;;5076054;28;20201;-86
2022/04/12 08:41:19;;;;;;;4.22;3.60;;;;;;;;;;5075427;28;20687;-87
2022/04/12 08:43:46;;;;;;;4.32;3.63;;;;;;;;;;5078907;28;20274;-86
2022/04/12 08:46:14;;;;;;;4.72;4.00;;;;;;;;;;5078057;28;20697;-85
2022/04/12 08:48:42;;;;;;;5.15;4.05;;;;;;;;;;5078571;28;20200;-86
2022/04/12 08:51:10;;;;;;;3.53;3.03;;;;;;;;;;5077289;28;20205;-85
2022/04/12 08:53:37;;;;;;;3.35;3.05;;;;;;;;;;5077454;28;20197;-85
2022/04/12 08:56:05;;;;;;;3.83;2.92;;;;;;;;;;5077774;28;20228;-86
2022/04/12 08:58:33;;;;;;;4.28;3.58;;;;;;;;;;5077575;28;20208;-86
2022/04/12 09:01:02;;;;;;;4.07;3.65;;;;;;;;;;5077897;28;20685;-86
2022/04/12 09:03:29;;;;;;;4.50;3.30;;;;;;;;;;5076408;28;20201;-86
2022/04/12 09:05:58;;;;;;;3.85;3.55;;;;;;;;;;5075460;28;20239;-86
2022/04/12 09:08:30;;;;;;;4.43;4.05;;;;;;;;;;5075511;28;20205;-86
2022/04/12 09:11:02;;;;;;;3.22;2.92;;;;;;;;;;5075548;28;20209;-86
2022/04/12 09:13:30;;;;;;;3.05;2.75;;;;;;;;;;5075566;28;20201;-86
2022/04/12 09:15:58;;;;;;;3.00;2.70;;;;;;;;;;5075135;28;20899;-86
2022/04/12 09:18:34;;;;;;;3.42;2.67;;;;;;;;;;5075776;28;20254;-85
2022/04/12 09:21:15;;;;;;;5.85;3.55;;;;;;;;;;5076421;28;20213;-86
2022/04/12 09:23:44;;;;;;;5.05;3.20;;;;;;;;;;5075264;28;20185;-86
2022/04/12 09:26:17;;;;;;;3.67;3.38;;;;;;;;;;5074184;28;20213;-86
2022/04/12 09:28:45;;;;;;;2.67;2.45;;;;;;;;;;5074389;28;20634;-87
2022/04/12 09:31:14;;;;;;;3.65;3.33;;;;;;;;;;5074361;28;20227;-87
2022/04/12 09:33:42;;;;;;;3.10;2.53;;;;;;;;;;5074699;28;20201;-86
2022/04/12 09:36:12;;;;;;;2.67;2.42;;;;;;;;;;5074337;28;20229;-86
2022/04/12 09:38:41;;;;;;;3.45;3.15;;;;;;;;;;5074880;28;20232;-86
2022/04/12 09:41:17;;;;;;;2.85;2.42;;;;;;;;;;5076178;28;20718;-86
2022/04/12 09:44:05;;;;;;;2.70;2.35;;;;;;;;;;5075383;28;20246;-85
2022/04/12 09:46:33;;;;;;;3.35;3.05;;;;;;;;;;5074653;28;20307;-86
2022/04/12 09:49:02;;;;;;;3.25;2.95;;;;;;;;;;5074271;28;20200;-86
2022/04/12 09:51:32;;;;;;;4.28;3.70;;;;;;;;;;5074803;28;20251;-86
2022/04/12 09:53:59;;;;;;;3.47;3.17;;;;;;;;;;5074995;28;20197;-86
2022/04/12 09:56:29;;;;;;;2.83;2.63;;;;;;;;;;5074364;28;20243;-86
2022/04/12 09:58:58;;;;;;;3.92;3.38;;;;;;;;;;5075331;28;20204;-85
2022/04/12 10:01:26;;;;;;;3.33;3.00;;;;;;;;;;5074704;28;20419;-86
2022/04/12 10:03:56;;;;;;;3.70;3.40;;;;;;;;;;5074861;28;20209;-86
2022/04/12 10:06:26;;;;;;;3.55;3.25;;;;;;;;;;5074441;28;20228;-87
2022/04/12 10:08:56;;;;;;;3.75;3.33;;;;;;;;;;5076519;28;20189;-86
2022/04/12 10:11:25;;;;;;;3.38;3.08;;;;;;;;;;5075837;28;20185;-86
2022/04/12 10:13:53;;;;;;;3.45;3.08;;;;;;;;;;5075174;28;20213;-85
2022/04/12 10:16:22;;;;;;;4.63;3.20;;;;;;;;;;5076587;28;20275;-86
2022/04/12 10:18:50;;;;;;;4.57;3.80;;;;;;;;;;5076561;28;20201;-86
2022/04/12 10:21:19;;;;;;;4.28;3.33;;;;;;;;;;5075936;28;20201;-89
2022/04/12 10:23:52;;;;;;;3.35;2.85;;;;;;;;;;5066535;28;20215;-89
2022/04/12 10:26:24;;;;;;;3.65;3.35;;;;;;;;;;5072567;28;20596;-89
2022/04/12 10:28:53;;;;;;;3.65;3.35;;;;;;;;;;5072634;28;20212;-88
2022/04/12 10:31:24;;;;;;;3.33;3.03;;;;;;;;;;5071619;28;20658;-89
2022/04/12 10:33:53;;;;;;;2.97;2.70;;;;;;;;;;5072139;28;20633;-89
2022/04/12 10:36:21;;;;;;;2.90;2.60;;;;;;;;;;5072469;28;20220;-88
2022/04/12 10:38:48;;;;;;;3.22;2.97;;;;;;;;;;5072197;28;20219;-87
2022/04/12 10:41:25;;;;;;;3.53;3.22;;;;;;;;;;5072231;28;20479;-89
2022/04/12 10:43:57;;;;;;;3.63;3.33;;;;;;;;;;5072722;28;20637;-89
2022/04/12 10:46:25;;;;;;;3.30;3.03;;;;;;;;;;5072409;28;20263;-89
2022/04/12 10:48:56;;;;;;;4.88;3.08;;;;;;;;;;5071999;28;20204;-89
2022/04/12 10:51:39;;;;;;;3.47;3.17;;;;;;;;;;5070379;28;20296;-89
2022/04/12 10:54:07;;;;;;;3.40;3.10;;;;;;;;;;5065688;28;20209;-89
2022/04/12 10:56:36;;;;;;;3.55;3.22;;;;;;;;;;5058631;28;20228;-90
2022/04/12 10:59:03;;;;;;;1.83;1.73;;;;;;;;;;5065683;28;20212;-90
2022/04/12 11:01:35;;;;;;;2.40;2.20;;;;;;;;;;5072228;28;20201;-90
2022/04/12 11:04:03;;;;;;;3.53;2.45;;;;;;;;;;5072456;28;20661;-90
2022/04/12 11:06:32;;;;;;;2.70;2.47;;;;;;;;;;5072814;28;20240;-89
2022/04/12 11:09:10;;;;;;;3.13;2.83;;;;;;;;;;5072800;28;20205;-90
2022/04/12 11:11:41;;;;;;;3.33;2.65;;;;;;;;;;5072696;28;20230;-90
2022/04/12 11:14:26;;;;;;;2.58;2.38;;;;;;;;;;5074496;28;20197;-87
2022/04/12 11:16:58;;;;;;;3.00;2.80;;;;;;;;;;5073946;28;20228;-90
2022/04/12 11:19:26;;;;;;;2.42;2.22;;;;;;;;;;5077043;28;20177;-89
2022/04/12 11:22:03;;;;;;;2.42;2.22;;;;;;;;;;5074889;28;20201;-86
2022/04/12 11:24:30;;;;;;;2.28;1.83;;;;;;;;;;5072464;28;20200;-84
2022/04/12 11:27:08;;;;;;;2.10;2.00;;;;;;;;;;5052092;28;20217;-85
2022/04/12 11:29:37;;;;;;;1.92;1.83;;;;;;;;;;5052459;28;20527;-84
2022/04/12 11:32:06;;;;;;;2.05;1.83;;;;;;;;;;5053518;28;20201;-85
2022/04/12 11:34:33;;;;;;;1.83;1.73;;;;;;;;;;5072047;28;20211;-86
2022/04/12 11:37:05;;;;;;;3.20;2.53;;;;;;;;;;5071759;28;20255;-85
2022/04/12 11:39:35;;;;;;;1.60;1.50;;;;;;;;;;5071880;28;20197;-86
2022/04/12 11:42:07;;;;;;;1.60;1.50;;;;;;;;;;5072360;28;20428;-85
2022/04/12 11:44:35;;;;;;;1.95;1.77;;;;;;;;;;5071742;28;20619;-86
2022/04/12 11:47:05;;;;;;;2.40;1.73;;;;;;;;;;5071835;28;20231;-86
2022/04/12 11:49:35;;;;;;;1.92;1.83;;;;;;;;;;5071905;28;20549;-86
2022/04/12 11:52:05;;;;;;;1.63;1.52;;;;;;;;;;5071802;28;20205;-86
2022/04/12 11:54:34;;;;;;;1.60;1.50;;;;;;;;;;5071303;28;20208;-86
2022/04/12 11:57:05;;;;;;;2.40;2.20;;;;;;;;;;5071661;28;20229;-85
2022/04/12 11:59:35;;;;;;;1.70;1.60;;;;;;;;;;5071505;28;20207;-86
2022/04/12 12:02:05;;;;;;;2.20;2.10;;;;;;;;;;5071499;28;20197;-87
2022/04/12 12:04:35;;;;;;;2.00;1.90;;;;;;;;;;5072073;28;20646;-87
2022/04/12 12:07:04;;;;;;;1.38;1.30;;;;;;;;;;5073581;28;20232;-86
2022/04/12 12:09:32;;;;;;;1.67;1.58;;;;;;;;;;5074966;28;20201;-86
2022/04/12 12:12:01;;;;;;;1.42;1.42;;;;;;;;;;5074582;28;20307;-86
2022/04/12 12:14:30;;;;;;;1.77;1.67;;;;;;;;;;5074953;28;20209;-86
2022/04/12 12:17:03;;;;;;;1.88;1.77;;;;;;;;;;5074831;28;20604;-87
2022/04/12 12:19:33;;;;;;;1.55;1.45;;;;;;;;;;5068209;28;20582;-87
2022/04/12 12:22:02;;;;;;;1.55;1.45;;;;;;;;;;5074762;28;20303;-87
2022/04/12 12:24:29;;;;;;;2.05;1.65;;;;;;;;;;5074945;28;20253;-88
2022/04/12 12:26:57;;;;;;;2.53;2.33;;;;;;;;;;5074149;28;20232;-87
2022/04/12 12:29:26;;;;;;;3.63;2.13;;;;;;;;;;5074080;28;20280;-86
2022/04/12 12:31:57;;;;;;;1.73;1.63;;;;;;;;;;5075048;28;20197;-86
2022/04/12 12:34:29;;;;;;;1.10;1.10;;;;;;;;;;5074534;28;20209;-86
2022/04/12 12:36:56;;;;;;;2.00;1.90;;;;;;;;;;5074566;28;20221;-86
2022/04/12 12:39:28;;;;;;;1.48;1.38;;;;;;;;;;5074553;28;20201;-87
2022/04/12 12:41:59;;;;;;;1.58;1.48;;;;;;;;;;5074579;28;20743;-85
2022/04/12 12:44:26;;;;;;;1.17;1.15;;;;;;;;;;5074449;28;20225;-86
2022/04/12 12:46:59;;;;;;;1.75;1.48;;;;;;;;;;5074347;28;20213;-86
2022/04/12 12:49:36;;;;;;;1.40;1.30;;;;;;;;;;5073473;28;20670;-87
2022/04/12 12:52:05;;;;;;;1.60;1.50;;;;;;;;;;5074406;28;20212;-86
2022/04/12 12:54:33;;;;;;;1.48;1.15;;;;;;;;;;5074132;28;20207;-86
2022/04/12 12:57:01;;;;;;;1.08;1.08;;;;;;;;;;5074252;28;20217;-86
2022/04/12 12:59:30;;;;;;;1.60;1.50;;;;;;;;;;5074121;28;20201;-87
2022/04/12 13:02:07;;;;;;;1.30;1.20;;;;;;;;;;5074191;28;20216;-86
2022/04/12 13:04:36;;;;;;;1.75;0.98;;;;;;;;;;5074208;28;20220;-87
2022/04/12 13:07:06;;;;;;;1.33;1.23;;;;;;;;;;5073982;28;20640;-87
2022/04/12 13:09:40;;;;;;;1.27;1.17;;;;;;;;;;5073863;28;20213;-86
2022/04/12 13:12:08;;;;;;;1.40;1.30;;;;;;;;;;5068400;28;20740;-86
2022/04/12 13:14:36;;;;;;;1.40;1.33;;;;;;;;;;5074324;28;20659;-86
2022/04/12 13:17:05;;;;;;;1.35;1.35;;;;;;;;;;5073548;28;20224;-87
2022/04/12 13:19:34;;;;;;;1.58;1.40;;;;;;;;;;5073264;28;20807;-86
2022/04/12 13:22:03;;;;;;;1.38;1.27;;;;;;;;;;5073803;28;20662;-86
2022/04/12 13:24:34;;;;;;;1.45;1.35;;;;;;;;;;5073561;28;20228;-86
2022/04/12 13:27:02;;;;;;;1.02;0.95;;;;;;;;;;5073567;28;20229;-87
2022/04/12 13:29:29;;;;;;;1.88;1.20;;;;;;;;;;5073730;28;20205;-87
2022/04/12 13:31:57;;;;;;;1.65;1.30;;;;;;;;;;5073666;28;20208;-86
2022/04/12 13:34:26;;;;;;;1.48;1.38;;;;;;;;;;5074033;28;20211;-86
2022/04/12 13:36:53;;;;;;;1.42;1.30;;;;;;;;;;5073660;28;20571;-87
2022/04/12 13:39:20;;;;;;;1.02;1.02;;;;;;;;;;5073440;28;20201;-86
2022/04/12 13:41:49;;;;;;;1.00;0.90;;;;;;;;;;5073569;28;20205;-87
2022/04/12 13:44:16;;;;;;;1.13;1.13;;;;;;;;;;5074116;28;20247;-86
2022/04/12 13:46:43;;;;;;;1.15;1.08;;;;;;;;;;5073375;28;20287;-87
2022/04/12 13:49:11;;;;;;;1.45;1.35;;;;;;;;;;5073610;28;20577;-86
2022/04/12 13:51:39;;;;;;;1.70;1.60;;;;;;;;;;5073499;28;20311;-86
2022/04/12 13:54:07;;;;;;;1.20;1.20;;;;;;;;;;5073569;28;20583;-87
2022/04/12 13:56:34;;;;;;;1.40;1.30;;;;;;;;;;5073542;28;20225;-87
2022/04/12 13:59:02;;;;;;;1.50;1.40;;;;;;;;;;5073513;28;20584;-86
2022/04/12 14:01:29;;;;;;;1.33;1.23;;;;;;;;;;5073301;28;20577;-86
2022/04/12 14:03:57;;;;;;;1.00;1.00;;;;;;;;;;5073061;28;20220;-86
2022/04/12 14:06:25;;;;;;;1.48;1.35;;;;;;;;;;5073274;28;20225;-86
2022/04/12 14:08:54;;;;;;;1.30;1.20;;;;;;;;;;5073380;28;20213;-86
2022/04/12 14:11:21;;;;;;;2.00;1.90;;;;;;;;;;5073838;28;20201;-86
2022/04/12 14:13:49;;;;;;;1.50;1.40;;;;;;;;;;5072517;28;20204;-85
2022/04/12 14:16:16;;;;;;;3.00;1.75;;;;;;;;;;5073490;28;20217;-86
2022/04/12 14:18:44;;;;;;;1.20;1.10;;;;;;;;;;5073002;28;20240;-86
2022/04/12 14:21:12;;;;;;;1.75;1.45;;;;;;;;;;5070097;28;20727;-87
2022/04/12 14:23:42;;;;;;;1.65;1.40;;;;;;;;;;5072826;28;20213;-86
2022/04/12 14:26:11;;;;;;;1.35;1.13;;;;;;;;;;5073516;28;20225;-85
2022/04/12 14:28:39;;;;;;;0.98;0.98;;;;;;;;;;5072736;28;20201;-86
2022/04/12 14:31:08;;;;;;;1.08;1.05;;;;;;;;;;5072095;28;20205;-86
2022/04/12 14:33:36;;;;;;;1.77;1.58;;;;;;;;;;5072942;28;20208;-86
2022/04/12 14:36:04;;;;;;;1.55;1.45;;;;;;;;;;5072422;28;20221;-86
2022/04/12 14:38:31;;;;;;;1.40;1.30;;;;;;;;;;5072573;28;20205;-87
2022/04/12 14:40:58;;;;;;;1.63;1.52;;;;;;;;;;5072769;28;20735;-86
2022/04/12 14:43:28;;;;;;;1.08;1.08;;;;;;;;;;5072885;28;20209;-86
2022/04/12 14:45:56;;;;;;;6.32;1.45;;;;;;;;;;5073504;28;20704;-87
2022/04/12 14:48:24;;;;;;;1.33;1.20;;;;;;;;;;5073132;28;20591;-86
2022/04/12 14:50:55;;;;;;;0.93;0.85;;;;;;;;;;5072708;28;20220;-86
2022/04/12 14:53:23;;;;;;;0.80;0.80;;;;;;;;;;5073092;28;20529;-86